createdAt,value
2022-07-29T00:02:29.984Z,48.87
2022-07-29T00:05:33.309Z,48.40
2022-07-29T00:08:36.634Z,48.45
2022-07-29T00:11:39.997Z,48.63
2022-07-29T00:14:44.731Z,49.60
2022-07-29T00:17:49.011Z,50.12
2022-07-29T00:20:52.359Z,49.22
2022-07-29T00:23:55.656Z,49.95
2022-07-29T00:26:58.899Z,49.15
2022-07-29T00:30:03.656Z,49.02
2022-07-29T00:33:09.105Z,49.65
2022-07-29T00:36:11.588Z,50.22
2022-07-29T00:39:14.818Z,50.00
2022-07-29T00:42:18.494Z,50.79
2022-07-29T00:45:23.306Z,50.51
2022-07-29T00:48:26.615Z,51.15
2022-07-29T00:51:30.067Z,51.77
2022-07-29T00:54:34.258Z,51.03
2022-07-29T00:57:38.619Z,51.20
2022-07-29T01:00:43.568Z,50.73
2022-07-29T01:03:48.750Z,51.03
2022-07-29T01:06:53.123Z,52.06
2022-07-29T01:09:58.093Z,51.40
2022-07-29T01:13:03.538Z,50.20
2022-07-29T01:16:20.566Z,50.75
2022-07-29T01:19:43.234Z,51.14
2022-07-29T01:23:03.877Z,52.38
2022-07-29T01:26:30.431Z,52.06
2022-07-29T01:29:41.191Z,51.36
2022-07-29T01:32:49.751Z,51.15
2022-07-29T01:35:53.262Z,50.67
2022-07-29T01:39:01.474Z,50.63
2022-07-29T01:42:12.662Z,50.49
2022-07-29T01:45:22.289Z,50.76
2022-07-29T01:48:32.074Z,51.27
2022-07-29T01:51:42.308Z,51.90
2022-07-29T01:54:51.698Z,51.91
2022-07-29T01:57:56.572Z,52.01
2022-07-29T02:01:02.919Z,52.21
2022-07-29T02:04:10.954Z,51.83
2022-07-29T02:07:19.111Z,51.80
2022-07-29T02:10:25.973Z,52.91
2022-07-29T02:13:31.178Z,52.37
2022-07-29T02:16:39.292Z,51.43
2022-07-29T02:19:46.997Z,51.99
2022-07-29T02:22:52.090Z,51.83
2022-07-29T02:25:57.240Z,51.79
2022-07-29T02:29:02.382Z,51.55
2022-07-29T02:32:11.531Z,50.77
2022-07-29T02:35:17.488Z,51.54
2022-07-29T02:38:39.340Z,52.63
2022-07-29T02:41:46.127Z,52.34
2022-07-29T02:44:49.420Z,51.27
2022-07-29T02:47:55.950Z,51.34
2022-07-29T02:51:07.381Z,51.57
2022-07-29T02:54:13.040Z,51.15
2022-07-29T02:57:22.594Z,51.24
2022-07-29T03:00:30.453Z,50.26
2022-07-29T03:03:39.865Z,50.52
2022-07-29T03:06:45.503Z,50.82
2022-07-29T03:09:49.467Z,50.10
2022-07-29T03:12:53.393Z,49.81
2022-07-29T03:15:58.129Z,49.57
2022-07-29T03:19:03.636Z,50.47
2022-07-29T03:22:07.173Z,50.75
2022-07-29T03:25:11.183Z,50.86
2022-07-29T03:28:14.427Z,50.24
2022-07-29T03:31:19.536Z,50.14
2022-07-29T03:34:24.460Z,50.10
2022-07-29T03:37:27.851Z,49.66
2022-07-29T03:40:36.168Z,50.21
2022-07-29T03:43:49.356Z,49.67
2022-07-29T03:46:56.438Z,49.02
2022-07-29T03:50:04.117Z,47.81
2022-07-29T03:53:07.940Z,48.37
2022-07-29T03:56:14.342Z,49.40
2022-07-29T03:59:20.826Z,49.06
2022-07-29T04:02:30.409Z,48.84
2022-07-29T04:05:35.655Z,48.07
2022-07-29T04:08:39.098Z,47.75
2022-07-29T04:11:57.080Z,48.72
2022-07-29T04:15:07.009Z,47.75
2022-07-29T04:18:10.228Z,49.01
2022-07-29T04:21:14.854Z,50.15
2022-07-29T04:24:18.749Z,49.14
2022-07-29T04:27:22.370Z,49.26
2022-07-29T04:30:25.625Z,49.65
2022-07-29T04:33:28.914Z,48.15
2022-07-29T04:36:33.601Z,48.04
2022-07-29T04:39:36.889Z,47.41
2022-07-29T04:42:46.427Z,47.11
2022-07-29T04:45:50.295Z,47.91
2022-07-29T04:48:53.816Z,46.99
2022-07-29T04:51:59.093Z,46.11
2022-07-29T04:55:02.427Z,46.11
2022-07-29T04:58:05.751Z,46.11
2022-07-29T05:01:09.187Z,45.43
2022-07-29T05:04:12.718Z,44.99
2022-07-29T05:07:17.990Z,44.81
2022-07-29T05:10:21.348Z,46.23
2022-07-29T05:13:24.690Z,45.91
2022-07-29T05:16:28.298Z,44.61
2022-07-29T05:19:31.547Z,44.68
2022-07-29T05:22:36.272Z,45.91
2022-07-29T05:25:43.689Z,44.18
2022-07-29T05:28:48.190Z,44.35
2022-07-29T05:31:52.892Z,43.88
2022-07-29T05:34:56.238Z,43.96
2022-07-29T05:38:01.301Z,43.24
2022-07-29T05:41:04.805Z,43.66
2022-07-29T05:44:08.373Z,42.57
2022-07-29T05:47:12.667Z,42.80
2022-07-29T05:50:16.152Z,43.07
2022-07-29T05:53:21.201Z,42.15
2022-07-29T05:56:24.806Z,41.89
2022-07-29T05:59:30.648Z,42.06
2022-07-29T06:02:34.215Z,42.22
2022-07-29T06:05:37.792Z,40.76
2022-07-29T06:08:42.626Z,41.29
2022-07-29T06:11:45.974Z,41.06
2022-07-29T06:14:53.896Z,40.87
2022-07-29T06:17:59.038Z,41.18
2022-07-29T06:21:03.640Z,40.75
2022-07-29T06:24:09.343Z,40.99
2022-07-29T06:27:12.687Z,40.79
2022-07-29T06:30:15.976Z,41.29
2022-07-29T06:33:20.277Z,40.89
2022-07-29T06:36:23.614Z,40.11
2022-07-29T06:39:30.076Z,40.35
2022-07-29T06:42:33.767Z,40.05
2022-07-29T06:45:37.308Z,40.13
2022-07-29T06:48:41.780Z,39.21
2022-07-29T06:51:45.211Z,39.94
2022-07-29T06:54:50.486Z,40.02
2022-07-29T06:57:53.889Z,38.96
2022-07-29T07:00:58.196Z,39.41
2022-07-29T07:04:01.622Z,38.93
2022-07-29T07:07:04.965Z,38.37
2022-07-29T07:10:10.805Z,39.18
2022-07-29T07:13:14.123Z,40.12
2022-07-29T07:16:18.143Z,37.93
2022-07-29T07:19:21.470Z,37.73
2022-07-29T07:22:24.795Z,38.56
2022-07-29T07:25:29.609Z,38.10
2022-07-29T07:28:33.026Z,37.29
2022-07-29T07:31:36.420Z,37.71
2022-07-29T07:34:39.684Z,37.43
2022-07-29T07:37:43.205Z,37.44
2022-07-29T07:40:48.194Z,36.79
2022-07-29T07:43:51.707Z,37.78
2022-07-29T07:46:55.817Z,36.60
2022-07-29T07:49:59.155Z,36.51
2022-07-29T07:53:03.233Z,36.56
2022-07-29T07:56:10.805Z,35.58
2022-07-29T07:59:15.053Z,35.13
2022-07-29T08:02:18.693Z,34.39
2022-07-29T08:05:22.117Z,34.14
2022-07-29T08:08:25.477Z,34.07
2022-07-29T08:11:30.197Z,33.71
2022-07-29T08:14:38.672Z,33.97
2022-07-29T08:17:42.659Z,33.76
2022-07-29T08:20:46.533Z,32.43
2022-07-29T08:24:00.712Z,32.58
2022-07-29T08:27:21.252Z,31.59
2022-07-29T08:30:30.648Z,31.33
2022-07-29T08:33:34.306Z,29.47
2022-07-29T08:36:37.908Z,29.60
2022-07-29T08:39:41.282Z,29.36
2022-07-29T08:42:46.236Z,29.62
2022-07-29T08:45:51.425Z,27.82
2022-07-29T08:48:54.954Z,29.00
2022-07-29T08:52:00.829Z,28.76
2022-07-29T08:55:04.376Z,28.93
2022-07-29T08:58:09.859Z,27.86
2022-07-29T09:01:18.433Z,28.30
2022-07-29T09:04:27.171Z,28.48
2022-07-29T09:07:34.644Z,28.05
2022-07-29T09:10:38.489Z,28.28
2022-07-29T09:13:43.299Z,27.86
2022-07-29T09:16:53.863Z,26.88
2022-07-29T09:20:11.486Z,26.41
2022-07-29T09:23:22.912Z,26.92
2022-07-29T09:26:30.438Z,27.82
2022-07-29T09:29:36.398Z,27.44
2022-07-29T09:32:57.554Z,27.08
2022-07-29T09:36:02.686Z,27.46
2022-07-29T09:39:07.372Z,26.90
2022-07-29T09:42:10.680Z,26.57
2022-07-29T09:45:28.037Z,27.75
2022-07-29T09:48:32.270Z,27.92
2022-07-29T09:51:38.288Z,27.44
2022-07-29T09:54:42.089Z,27.04
2022-07-29T09:57:46.371Z,25.27
2022-07-29T10:00:52.684Z,25.69
2022-07-29T10:03:56.192Z,26.64
2022-07-29T10:07:04.882Z,26.10
2022-07-29T10:10:09.072Z,26.18
2022-07-29T10:13:16.021Z,25.46
2022-07-29T10:16:21.379Z,26.26
2022-07-29T10:19:24.934Z,25.58
2022-07-29T10:22:51.969Z,24.39
2022-07-29T10:25:52.642Z,25.33
2022-07-29T10:28:56.025Z,24.70
2022-07-29T10:32:24.543Z,25.70
2022-07-29T10:35:46.052Z,25.31
2022-07-29T10:38:59.438Z,25.74
2022-07-29T10:42:13.326Z,25.84
2022-07-29T10:45:20.356Z,26.47
2022-07-29T10:48:25.427Z,25.78
2022-07-29T10:52:02.232Z,25.63
2022-07-29T10:55:08.037Z,26.03
2022-07-29T10:58:20.234Z,26.27
2022-07-29T11:01:37.178Z,26.34
2022-07-29T11:05:04.403Z,26.92
2022-07-29T11:08:35.056Z,25.79
2022-07-29T11:11:44.167Z,26.12
2022-07-29T11:15:00.356Z,26.20
2022-07-29T11:18:15.097Z,25.54
2022-07-29T11:21:49.040Z,25.90
2022-07-29T11:28:50.895Z,26.52
2022-07-29T11:32:10.115Z,27.39
2022-07-29T11:35:36.759Z,26.22
2022-07-29T11:38:43.799Z,27.18
2022-07-29T11:41:47.142Z,27.55
2022-07-29T11:44:57.344Z,27.19
2022-07-29T11:48:29.643Z,27.16
2022-07-29T11:51:32.906Z,26.87
2022-07-29T11:54:57.691Z,27.07
2022-07-29T11:58:03.727Z,26.79
2022-07-29T12:01:07.819Z,26.31
2022-07-29T12:04:12.072Z,26.77
2022-07-29T12:07:01.236Z,26.51
2022-07-29T12:07:17.139Z,26.18
2022-07-29T12:10:30.067Z,26.48
2022-07-29T12:13:41.328Z,26.32
2022-07-29T12:16:44.667Z,27.79
2022-07-29T12:19:48.019Z,26.75
2022-07-29T12:22:55.795Z,25.88
2022-07-29T12:26:01.470Z,25.88
2022-07-29T12:29:08.498Z,25.95
2022-07-29T12:32:19.642Z,25.69
2022-07-29T12:35:23.491Z,25.89
2022-07-29T12:38:27.808Z,26.35
2022-07-29T12:41:33.116Z,26.79
2022-07-29T12:44:50.223Z,26.29
2022-07-29T12:47:54.448Z,26.71
2022-07-29T12:50:59.505Z,26.28
2022-07-29T12:54:08.643Z,25.80
2022-07-29T12:57:20.421Z,25.94
2022-07-29T13:00:25.553Z,26.15
2022-07-29T13:03:29.188Z,26.93
2022-07-29T13:06:41.370Z,26.91
2022-07-29T13:09:46.754Z,27.02
2022-07-29T13:13:12.115Z,27.07
2022-07-29T13:16:15.669Z,26.87
2022-07-29T13:19:18.976Z,26.86
2022-07-29T13:22:25.278Z,27.36
2022-07-29T13:25:30.381Z,26.64
2022-07-29T13:28:35.266Z,27.03
2022-07-29T13:31:38.672Z,27.19
2022-07-29T13:34:42.065Z,27.47
2022-07-29T13:37:45.556Z,27.13
2022-07-29T13:40:48.927Z,27.38
2022-07-29T13:43:53.893Z,27.35
2022-07-29T13:46:57.409Z,27.10
2022-07-29T13:50:00.814Z,26.74
2022-07-29T13:53:05.056Z,26.97
2022-07-29T13:56:08.440Z,27.05
2022-07-29T13:59:13.215Z,27.11
2022-07-29T14:02:16.493Z,27.23
2022-07-29T14:05:20.204Z,27.39
2022-07-29T14:08:23.514Z,27.53
2022-07-29T14:11:27.345Z,27.44
2022-07-29T14:14:33.450Z,27.02
2022-07-29T14:17:36.918Z,26.73
2022-07-29T14:20:40.218Z,26.18
2022-07-29T14:23:43.599Z,25.91
2022-07-29T14:26:47.613Z,26.19
2022-07-29T14:29:52.327Z,25.70
2022-07-29T14:32:55.631Z,27.14
2022-07-29T14:36:01.133Z,26.04
2022-07-29T14:39:05.203Z,26.11
2022-07-29T14:42:09.041Z,25.67
2022-07-29T14:45:13.963Z,26.00
2022-07-29T14:48:17.360Z,25.72
2022-07-29T14:51:20.697Z,26.63
2022-07-29T14:54:24.055Z,26.17
2022-07-29T14:57:27.424Z,26.68
2022-07-29T15:00:34.510Z,26.51
2022-07-29T15:03:37.931Z,27.11
2022-07-29T15:06:41.304Z,26.97
2022-07-29T15:09:49.589Z,26.62
2022-07-29T15:12:53.486Z,27.50
2022-07-29T15:16:03.857Z,27.01
2022-07-29T15:19:08.595Z,26.94
2022-07-29T15:22:11.927Z,27.04
2022-07-29T15:25:15.502Z,26.25
2022-07-29T15:28:18.875Z,26.38
2022-07-29T15:31:23.670Z,27.03
2022-07-29T15:34:26.962Z,26.92
2022-07-29T15:37:48.570Z,27.90
2022-07-29T15:40:52.909Z,27.84
2022-07-29T15:43:56.322Z,27.28
2022-07-29T15:47:07.448Z,27.44
2022-07-29T15:50:15.847Z,27.64
2022-07-29T15:53:19.416Z,27.76
2022-07-29T15:56:22.883Z,27.99
2022-07-29T15:59:26.723Z,28.42
2022-07-29T16:02:31.799Z,28.82
2022-07-29T16:05:35.150Z,29.32
2022-07-29T16:08:38.530Z,29.05
2022-07-29T16:11:42.214Z,29.29
2022-07-29T16:14:45.662Z,29.37
2022-07-29T16:17:50.948Z,29.01
2022-07-29T16:20:54.291Z,28.75
2022-07-29T16:23:57.609Z,29.38
2022-07-29T16:27:01.404Z,29.32
2022-07-29T16:30:06.029Z,29.22
2022-07-29T16:33:10.704Z,29.35
2022-07-29T16:36:14.043Z,29.77
2022-07-29T16:39:22.154Z,29.66
2022-07-29T16:42:44.252Z,29.95
2022-07-29T16:45:48.834Z,30.15
2022-07-29T16:48:53.686Z,30.07
2022-07-29T16:51:57.444Z,30.20
2022-07-29T16:55:02.253Z,30.03
2022-07-29T16:58:05.717Z,30.06
2022-07-29T17:01:09.197Z,30.19
2022-07-29T17:04:15.164Z,29.95
2022-07-29T17:07:19.140Z,30.07
2022-07-29T17:10:23.383Z,30.26
2022-07-29T17:13:34.705Z,29.92
2022-07-29T17:16:38.201Z,30.03
2022-07-29T17:19:43.014Z,30.02
2022-07-29T17:22:46.298Z,30.37
2022-07-29T17:25:49.652Z,30.23
2022-07-29T17:28:52.879Z,30.22
2022-07-29T17:31:57.805Z,30.14
2022-07-29T17:35:02.445Z,30.25
2022-07-29T17:38:05.853Z,30.23
2022-07-29T17:41:09.829Z,30.40
2022-07-29T17:44:13.635Z,30.51
2022-07-29T17:47:16.933Z,30.36
2022-07-29T17:50:21.667Z,30.36
2022-07-29T17:53:25.014Z,30.63
2022-07-29T17:56:28.461Z,30.24
2022-07-29T17:59:31.829Z,30.55
2022-07-29T18:02:37.693Z,30.74
2022-07-29T18:05:43.123Z,30.55
2022-07-29T18:08:47.586Z,30.66
2022-07-29T18:11:50.928Z,30.70
2022-07-29T18:14:54.270Z,31.03
2022-07-29T18:17:58.157Z,30.71
2022-07-29T18:21:02.991Z,31.15
2022-07-29T18:24:06.783Z,31.00
2022-07-29T18:27:10.139Z,30.65
2022-07-29T18:30:15.190Z,31.40
2022-07-29T18:33:21.639Z,31.46
2022-07-29T18:36:26.948Z,31.61
2022-07-29T18:39:30.382Z,31.93
2022-07-29T18:42:34.123Z,31.60
2022-07-29T18:45:43.745Z,32.31
2022-07-29T18:48:47.495Z,31.92
2022-07-29T18:51:52.778Z,32.18
2022-07-29T18:54:56.088Z,32.21
2022-07-29T18:57:59.625Z,32.17
2022-07-29T19:01:02.978Z,32.49
2022-07-29T19:04:06.407Z,32.41
2022-07-29T19:07:11.144Z,32.72
2022-07-29T19:10:14.722Z,32.27
2022-07-29T19:13:18.082Z,32.95
2022-07-29T19:16:21.463Z,32.83
2022-07-29T19:19:25.498Z,33.66
2022-07-29T19:22:30.239Z,33.21
2022-07-29T19:25:35.637Z,33.31
2022-07-29T19:28:39.277Z,33.23
2022-07-29T19:31:43.116Z,33.36
2022-07-29T19:35:06.442Z,33.59
2022-07-29T19:38:11.326Z,33.68
2022-07-29T19:41:15.853Z,33.75
2022-07-29T19:44:19.554Z,33.89
2022-07-29T19:47:22.818Z,33.45
2022-07-29T19:50:26.833Z,33.90
2022-07-29T19:53:32.508Z,33.34
2022-07-29T19:56:36.000Z,34.09
2022-07-29T19:59:44.285Z,34.31
2022-07-29T20:02:48.246Z,33.95
2022-07-29T20:05:52.955Z,33.89
2022-07-29T20:08:58.916Z,33.45
2022-07-29T20:12:02.473Z,34.16
2022-07-29T20:15:07.215Z,33.64
2022-07-29T20:18:10.479Z,34.11
2022-07-29T20:21:19.925Z,34.90
2022-07-29T20:24:24.837Z,35.89
2022-07-29T20:27:28.195Z,35.04
2022-07-29T20:30:31.518Z,35.31
2022-07-29T20:33:36.395Z,35.10
2022-07-29T20:36:39.822Z,35.29
2022-07-29T20:39:46.456Z,35.93
2022-07-29T20:42:49.761Z,37.00
2022-07-29T20:45:53.330Z,35.99
2022-07-29T20:48:57.367Z,36.43
2022-07-29T20:52:00.950Z,36.44
2022-07-29T20:55:06.689Z,36.55
2022-07-29T20:58:10.028Z,36.92
2022-07-29T21:01:13.566Z,37.23
2022-07-29T21:04:20.900Z,37.55
2022-07-29T21:07:24.242Z,37.28
2022-07-29T21:10:29.522Z,38.06
2022-07-29T21:13:40.105Z,38.14
2022-07-29T21:16:43.536Z,38.78
2022-07-29T21:19:47.219Z,38.99
2022-07-29T21:22:50.562Z,38.71
2022-07-29T21:25:56.047Z,38.91
2022-07-29T21:28:59.501Z,39.31
2022-07-29T21:32:02.780Z,39.15
2022-07-29T21:35:14.524Z,39.26
2022-07-29T21:38:30.419Z,39.23
2022-07-29T21:41:35.704Z,39.03
2022-07-29T21:44:41.265Z,39.09
2022-07-29T21:47:44.587Z,38.95
2022-07-29T21:50:48.947Z,39.13
2022-07-29T21:53:53.053Z,39.44
2022-07-29T21:56:58.103Z,39.70
2022-07-29T22:00:03.218Z,40.10
2022-07-29T22:03:16.074Z,39.62
2022-07-29T22:06:19.387Z,39.85
2022-07-29T22:09:22.750Z,39.92
2022-07-29T22:12:28.169Z,39.98
2022-07-29T22:15:32.408Z,40.91
2022-07-29T22:18:35.793Z,40.82
2022-07-29T22:21:39.143Z,40.48
2022-07-29T22:24:42.463Z,40.17
2022-07-29T22:27:47.264Z,40.39
2022-07-29T22:30:50.586Z,40.41
2022-07-29T22:33:54.551Z,40.71
2022-07-29T22:37:13.350Z,40.75
2022-07-29T22:40:16.704Z,41.12
2022-07-29T22:43:21.374Z,40.98
2022-07-29T22:46:24.859Z,41.10
2022-07-29T22:49:28.164Z,41.41
2022-07-29T22:52:31.944Z,41.53
2022-07-29T22:55:35.646Z,41.36
2022-07-29T22:58:40.319Z,41.40
2022-07-29T23:01:43.726Z,41.79
2022-07-29T23:04:47.319Z,42.16
2022-07-29T23:07:50.683Z,42.35
2022-07-29T23:10:54.032Z,42.25
2022-07-29T23:13:58.733Z,41.91
2022-07-29T23:17:02.708Z,41.79
2022-07-29T23:20:09.014Z,42.18
2022-07-29T23:23:13.340Z,42.40
2022-07-29T23:26:17.079Z,42.29
2022-07-29T23:29:21.857Z,42.39
2022-07-29T23:32:25.196Z,42.53
2022-07-29T23:35:28.552Z,42.05
2022-07-29T23:38:31.899Z,41.95
2022-07-29T23:41:35.278Z,42.19
2022-07-29T23:44:39.965Z,41.63
2022-07-29T23:47:44.751Z,41.15
2022-07-29T23:50:48.101Z,41.61
2022-07-29T23:53:53.958Z,41.54
2022-07-29T23:56:58.378Z,41.24
